sensor_id;sensor_type;location;lat;lon;timestamp;P1;durP1;ratioP1;P2;durP2;ratioP2
24407;SDS011;12542;50.924;4.516;2023-02-14T00:02:07;36.13;;;18.38;;
24407;SDS011;12542;50.924;4.516;2023-02-14T00:04:35;39.83;;;17.33;;
24407;SDS011;12542;50.924;4.516;2023-02-14T00:07:07;38.63;;;17.33;;
24407;SDS011;12542;50.924;4.516;2023-02-14T00:09:34;30.73;;;17.30;;
24407;SDS011;12542;50.924;4.516;2023-02-14T00:11:59;31.02;;;16.88;;
24407;SDS011;12542;50.924;4.516;2023-02-14T00:14:25;33.72;;;17.33;;
24407;SDS011;12542;50.924;4.516;2023-02-14T00:17:09;43.05;;;20.10;;
24407;SDS011;12542;50.924;4.516;2023-02-14T00:19:35;35.58;;;18.05;;
24407;SDS011;12542;50.924;4.516;2023-02-14T00:22:01;36.85;;;19.73;;
24407;SDS011;12542;50.924;4.516;2023-02-14T00:24:31;35.90;;;19.13;;
24407;SDS011;12542;50.924;4.516;2023-02-14T00:26:57;40.22;;;19.13;;
24407;SDS011;12542;50.924;4.516;2023-02-14T00:29:24;42.45;;;20.63;;
24407;SDS011;12542;50.924;4.516;2023-02-14T00:31:54;35.33;;;18.85;;
24407;SDS011;12542;50.924;4.516;2023-02-14T00:34:20;39.38;;;19.30;;
24407;SDS011;12542;50.924;4.516;2023-02-14T00:36:46;35.10;;;18.52;;
24407;SDS011;12542;50.924;4.516;2023-02-14T00:39:13;34.03;;;18.35;;
24407;SDS011;12542;50.924;4.516;2023-02-14T00:41:39;33.45;;;17.60;;
24407;SDS011;12542;50.924;4.516;2023-02-14T00:44:06;33.83;;;16.90;;
24407;SDS011;12542;50.924;4.516;2023-02-14T00:46:33;32.20;;;16.60;;
24407;SDS011;12542;50.924;4.516;2023-02-14T00:49:01;29.63;;;16.58;;
24407;SDS011;12542;50.924;4.516;2023-02-14T00:51:28;33.33;;;18.15;;
24407;SDS011;12542;50.924;4.516;2023-02-14T00:53:53;29.45;;;16.27;;
24407;SDS011;12542;50.924;4.516;2023-02-14T00:56:19;33.65;;;17.05;;
24407;SDS011;12542;50.924;4.516;2023-02-14T00:58:45;32.15;;;17.83;;
24407;SDS011;12542;50.924;4.516;2023-02-14T01:01:12;31.10;;;17.15;;
24407;SDS011;12542;50.924;4.516;2023-02-14T01:03:39;29.52;;;16.48;;
24407;SDS011;12542;50.924;4.516;2023-02-14T01:06:05;30.73;;;15.38;;
24407;SDS011;12542;50.924;4.516;2023-02-14T01:08:31;26.60;;;15.10;;
24407;SDS011;12542;50.924;4.516;2023-02-14T01:11:05;29.38;;;15.95;;
24407;SDS011;12542;50.924;4.516;2023-02-14T01:13:36;30.00;;;14.80;;
24407;SDS011;12542;50.924;4.516;2023-02-14T01:16:06;31.63;;;15.90;;
24407;SDS011;12542;50.924;4.516;2023-02-14T01:18:37;28.52;;;15.82;;
24407;SDS011;12542;50.924;4.516;2023-02-14T01:23:43;27.98;;;15.13;;
24407;SDS011;12542;50.924;4.516;2023-02-14T01:26:10;31.00;;;17.45;;
24407;SDS011;12542;50.924;4.516;2023-02-14T01:28:36;29.73;;;15.77;;
24407;SDS011;12542;50.924;4.516;2023-02-14T01:31:07;28.05;;;15.13;;
24407;SDS011;12542;50.924;4.516;2023-02-14T01:33:35;28.45;;;16.48;;
24407;SDS011;12542;50.924;4.516;2023-02-14T01:36:02;28.55;;;15.70;;
24407;SDS011;12542;50.924;4.516;2023-02-14T01:38:28;27.15;;;15.93;;
24407;SDS011;12542;50.924;4.516;2023-02-14T01:40:54;30.63;;;15.85;;
24407;SDS011;12542;50.924;4.516;2023-02-14T01:43:19;38.40;;;16.58;;
24407;SDS011;12542;50.924;4.516;2023-02-14T01:45:45;31.60;;;15.95;;
24407;SDS011;12542;50.924;4.516;2023-02-14T01:48:11;32.13;;;16.48;;
24407;SDS011;12542;50.924;4.516;2023-02-14T01:50:39;33.38;;;16.70;;
24407;SDS011;12542;50.924;4.516;2023-02-14T01:53:13;28.02;;;15.07;;
24407;SDS011;12542;50.924;4.516;2023-02-14T01:55:46;29.17;;;16.25;;
24407;SDS011;12542;50.924;4.516;2023-02-14T01:58:18;27.20;;;14.40;;
24407;SDS011;12542;50.924;4.516;2023-02-14T02:00:48;26.67;;;13.77;;
24407;SDS011;12542;50.924;4.516;2023-02-14T02:08:53;30.85;;;15.10;;
24407;SDS011;12542;50.924;4.516;2023-02-14T02:11:22;29.83;;;14.93;;
24407;SDS011;12542;50.924;4.516;2023-02-14T02:13:47;28.00;;;14.45;;
24407;SDS011;12542;50.924;4.516;2023-02-14T02:16:20;32.83;;;17.98;;
24407;SDS011;12542;50.924;4.516;2023-02-14T02:33:43;33.78;;;17.75;;
24407;SDS011;12542;50.924;4.516;2023-02-14T02:38:56;31.85;;;16.08;;
24407;SDS011;12542;50.924;4.516;2023-02-14T02:50:43;31.52;;;16.83;;
24407;SDS011;12542;50.924;4.516;2023-02-14T02:56:12;30.70;;;15.60;;
24407;SDS011;12542;50.924;4.516;2023-02-14T03:01:53;35.40;;;18.15;;
24407;SDS011;12542;50.924;4.516;2023-02-14T03:04:31;33.17;;;16.77;;
24407;SDS011;12542;50.924;4.516;2023-02-14T03:07:18;32.97;;;16.85;;
24407;SDS011;12542;50.924;4.516;2023-02-14T03:20:35;33.75;;;18.15;;
24407;SDS011;12542;50.924;4.516;2023-02-14T03:23:13;32.15;;;17.40;;
24407;SDS011;12542;50.924;4.516;2023-02-14T03:26:09;36.33;;;18.80;;
24407;SDS011;12542;50.924;4.516;2023-02-14T03:36:34;39.08;;;18.33;;
24407;SDS011;12542;50.924;4.516;2023-02-14T03:41:37;36.40;;;17.83;;
24407;SDS011;12542;50.924;4.516;2023-02-14T03:44:08;36.00;;;18.20;;
24407;SDS011;12542;50.924;4.516;2023-02-14T03:46:41;33.80;;;17.02;;
24407;SDS011;12542;50.924;4.516;2023-02-14T03:49:15;35.38;;;18.42;;
24407;SDS011;12542;50.924;4.516;2023-02-14T03:51:46;34.58;;;18.17;;
24407;SDS011;12542;50.924;4.516;2023-02-14T03:54:14;35.67;;;18.27;;
24407;SDS011;12542;50.924;4.516;2023-02-14T03:59:47;33.97;;;16.80;;
24407;SDS011;12542;50.924;4.516;2023-02-14T04:02:19;30.75;;;16.52;;
24407;SDS011;12542;50.924;4.516;2023-02-14T04:04:58;35.65;;;18.13;;
24407;SDS011;12542;50.924;4.516;2023-02-14T04:07:28;38.85;;;19.40;;
24407;SDS011;12542;50.924;4.516;2023-02-14T04:09:53;39.33;;;19.40;;
24407;SDS011;12542;50.924;4.516;2023-02-14T04:12:19;39.92;;;20.52;;
24407;SDS011;12542;50.924;4.516;2023-02-14T04:14:45;36.47;;;19.50;;
24407;SDS011;12542;50.924;4.516;2023-02-14T04:17:11;33.63;;;18.55;;
24407;SDS011;12542;50.924;4.516;2023-02-14T04:19:58;35.60;;;18.80;;
24407;SDS011;12542;50.924;4.516;2023-02-14T04:22:24;34.97;;;17.92;;
24407;SDS011;12542;50.924;4.516;2023-02-14T04:24:51;36.92;;;19.05;;
24407;SDS011;12542;50.924;4.516;2023-02-14T04:27:17;39.92;;;19.15;;
24407;SDS011;12542;50.924;4.516;2023-02-14T04:29:44;33.67;;;18.27;;
24407;SDS011;12542;50.924;4.516;2023-02-14T04:32:12;33.00;;;17.90;;
24407;SDS011;12542;50.924;4.516;2023-02-14T04:34:39;33.78;;;17.30;;
24407;SDS011;12542;50.924;4.516;2023-02-14T04:37:06;34.05;;;17.50;;
24407;SDS011;12542;50.924;4.516;2023-02-14T04:39:32;34.60;;;18.02;;
24407;SDS011;12542;50.924;4.516;2023-02-14T04:41:59;39.15;;;20.27;;
24407;SDS011;12542;50.924;4.516;2023-02-14T04:44:24;35.45;;;18.92;;
24407;SDS011;12542;50.924;4.516;2023-02-14T04:46:51;35.17;;;18.52;;
24407;SDS011;12542;50.924;4.516;2023-02-14T04:49:17;35.92;;;18.80;;
24407;SDS011;12542;50.924;4.516;2023-02-14T04:51:43;31.98;;;17.38;;
24407;SDS011;12542;50.924;4.516;2023-02-14T04:54:08;35.22;;;18.40;;
24407;SDS011;12542;50.924;4.516;2023-02-14T04:56:36;35.78;;;18.52;;
24407;SDS011;12542;50.924;4.516;2023-02-14T04:59:03;34.20;;;18.30;;
24407;SDS011;12542;50.924;4.516;2023-02-14T05:01:28;35.00;;;19.25;;
24407;SDS011;12542;50.924;4.516;2023-02-14T05:03:54;36.75;;;18.13;;
24407;SDS011;12542;50.924;4.516;2023-02-14T05:06:20;34.83;;;19.05;;
24407;SDS011;12542;50.924;4.516;2023-02-14T05:08:46;42.13;;;19.60;;
24407;SDS011;12542;50.924;4.516;2023-02-14T05:11:12;33.65;;;18.10;;
24407;SDS011;12542;50.924;4.516;2023-02-14T05:13:38;36.80;;;19.55;;
24407;SDS011;12542;50.924;4.516;2023-02-14T05:16:04;31.80;;;18.42;;
24407;SDS011;12542;50.924;4.516;2023-02-14T05:18:30;37.38;;;19.05;;
24407;SDS011;12542;50.924;4.516;2023-02-14T05:20:56;39.53;;;18.63;;
24407;SDS011;12542;50.924;4.516;2023-02-14T05:23:22;35.42;;;18.77;;
24407;SDS011;12542;50.924;4.516;2023-02-14T05:25:48;37.60;;;18.90;;
24407;SDS011;12542;50.924;4.516;2023-02-14T05:28:14;36.00;;;19.73;;
24407;SDS011;12542;50.924;4.516;2023-02-14T05:30:41;33.17;;;18.55;;
24407;SDS011;12542;50.924;4.516;2023-02-14T05:33:06;39.20;;;19.45;;
24407;SDS011;12542;50.924;4.516;2023-02-14T05:35:32;38.15;;;21.33;;
24407;SDS011;12542;50.924;4.516;2023-02-14T05:37:58;39.72;;;20.85;;
24407;SDS011;12542;50.924;4.516;2023-02-14T05:40:24;47.38;;;22.60;;
24407;SDS011;12542;50.924;4.516;2023-02-14T05:42:53;43.15;;;23.63;;
24407;SDS011;12542;50.924;4.516;2023-02-14T05:45:20;45.28;;;23.95;;
24407;SDS011;12542;50.924;4.516;2023-02-14T05:47:46;46.78;;;25.63;;
24407;SDS011;12542;50.924;4.516;2023-02-14T05:50:13;41.78;;;21.25;;
24407;SDS011;12542;50.924;4.516;2023-02-14T05:52:39;40.97;;;22.75;;
24407;SDS011;12542;50.924;4.516;2023-02-14T05:55:05;42.97;;;22.77;;
24407;SDS011;12542;50.924;4.516;2023-02-14T05:57:31;38.17;;;20.67;;
24407;SDS011;12542;50.924;4.516;2023-02-14T05:59:57;43.65;;;23.08;;
24407;SDS011;12542;50.924;4.516;2023-02-14T06:02:22;40.22;;;22.83;;
24407;SDS011;12542;50.924;4.516;2023-02-14T06:04:48;35.85;;;19.85;;
24407;SDS011;12542;50.924;4.516;2023-02-14T06:07:13;34.22;;;19.55;;
24407;SDS011;12542;50.924;4.516;2023-02-14T06:09:39;39.03;;;19.50;;
24407;SDS011;12542;50.924;4.516;2023-02-14T06:12:05;38.15;;;19.48;;
24407;SDS011;12542;50.924;4.516;2023-02-14T06:14:31;36.83;;;19.00;;
24407;SDS011;12542;50.924;4.516;2023-02-14T06:16:57;38.97;;;18.85;;
24407;SDS011;12542;50.924;4.516;2023-02-14T06:19:22;39.17;;;19.58;;
24407;SDS011;12542;50.924;4.516;2023-02-14T06:21:48;37.85;;;19.20;;
24407;SDS011;12542;50.924;4.516;2023-02-14T06:24:13;37.13;;;19.02;;
24407;SDS011;12542;50.924;4.516;2023-02-14T06:26:39;32.72;;;18.15;;
24407;SDS011;12542;50.924;4.516;2023-02-14T06:29:05;35.47;;;18.92;;
24407;SDS011;12542;50.924;4.516;2023-02-14T06:31:30;36.45;;;18.95;;
24407;SDS011;12542;50.924;4.516;2023-02-14T06:33:56;37.80;;;19.23;;
24407;SDS011;12542;50.924;4.516;2023-02-14T06:36:22;38.60;;;18.23;;
24407;SDS011;12542;50.924;4.516;2023-02-14T06:38:48;36.97;;;18.63;;
24407;SDS011;12542;50.924;4.516;2023-02-14T06:41:14;37.33;;;18.95;;
24407;SDS011;12542;50.924;4.516;2023-02-14T06:43:41;33.70;;;18.52;;
24407;SDS011;12542;50.924;4.516;2023-02-14T06:46:09;36.88;;;18.80;;
24407;SDS011;12542;50.924;4.516;2023-02-14T06:48:39;36.63;;;18.55;;
24407;SDS011;12542;50.924;4.516;2023-02-14T06:51:05;33.47;;;18.60;;
24407;SDS011;12542;50.924;4.516;2023-02-14T06:53:31;34.63;;;18.55;;
24407;SDS011;12542;50.924;4.516;2023-02-14T06:55:57;37.17;;;18.52;;
24407;SDS011;12542;50.924;4.516;2023-02-14T06:58:23;35.75;;;19.75;;
24407;SDS011;12542;50.924;4.516;2023-02-14T07:00:48;36.28;;;18.30;;
24407;SDS011;12542;50.924;4.516;2023-02-14T07:03:14;36.28;;;18.75;;
24407;SDS011;12542;50.924;4.516;2023-02-14T07:05:40;32.60;;;18.42;;
24407;SDS011;12542;50.924;4.516;2023-02-14T07:08:06;39.75;;;19.33;;
24407;SDS011;12542;50.924;4.516;2023-02-14T07:10:33;60.22;;;26.83;;
24407;SDS011;12542;50.924;4.516;2023-02-14T07:12:59;39.45;;;20.90;;
24407;SDS011;12542;50.924;4.516;2023-02-14T07:15:25;49.35;;;25.27;;
24407;SDS011;12542;50.924;4.516;2023-02-14T07:17:52;56.70;;;26.13;;
24407;SDS011;12542;50.924;4.516;2023-02-14T07:20:18;51.70;;;23.70;;
24407;SDS011;12542;50.924;4.516;2023-02-14T07:22:44;51.58;;;23.55;;
24407;SDS011;12542;50.924;4.516;2023-02-14T07:25:10;45.20;;;21.13;;
24407;SDS011;12542;50.924;4.516;2023-02-14T07:27:37;44.90;;;21.35;;
24407;SDS011;12542;50.924;4.516;2023-02-14T07:30:03;43.17;;;20.45;;
24407;SDS011;12542;50.924;4.516;2023-02-14T07:32:29;39.38;;;20.77;;
24407;SDS011;12542;50.924;4.516;2023-02-14T07:34:55;38.95;;;20.98;;
24407;SDS011;12542;50.924;4.516;2023-02-14T07:37:21;34.17;;;19.45;;
24407;SDS011;12542;50.924;4.516;2023-02-14T07:39:46;39.00;;;19.67;;
24407;SDS011;12542;50.924;4.516;2023-02-14T07:42:12;35.22;;;17.85;;
24407;SDS011;12542;50.924;4.516;2023-02-14T07:44:38;31.42;;;16.98;;
24407;SDS011;12542;50.924;4.516;2023-02-14T07:47:04;30.58;;;17.55;;
24407;SDS011;12542;50.924;4.516;2023-02-14T07:49:30;33.80;;;18.13;;
24407;SDS011;12542;50.924;4.516;2023-02-14T07:51:56;39.67;;;20.10;;
24407;SDS011;12542;50.924;4.516;2023-02-14T07:54:22;32.55;;;17.52;;
24407;SDS011;12542;50.924;4.516;2023-02-14T07:56:48;30.55;;;18.88;;
24407;SDS011;12542;50.924;4.516;2023-02-14T07:59:14;34.90;;;19.38;;
24407;SDS011;12542;50.924;4.516;2023-02-14T08:01:40;34.42;;;21.10;;
24407;SDS011;12542;50.924;4.516;2023-02-14T08:04:06;30.58;;;18.98;;
24407;SDS011;12542;50.924;4.516;2023-02-14T08:06:32;28.17;;;17.98;;
24407;SDS011;12542;50.924;4.516;2023-02-14T08:08:58;32.40;;;17.77;;
24407;SDS011;12542;50.924;4.516;2023-02-14T08:11:23;32.33;;;17.48;;
24407;SDS011;12542;50.924;4.516;2023-02-14T08:14:07;23.25;;;16.13;;
24407;SDS011;12542;50.924;4.516;2023-02-14T08:16:33;29.52;;;16.92;;
24407;SDS011;12542;50.924;4.516;2023-02-14T08:19:01;24.10;;;16.23;;
24407;SDS011;12542;50.924;4.516;2023-02-14T08:21:28;26.05;;;17.42;;
24407;SDS011;12542;50.924;4.516;2023-02-14T08:23:54;32.35;;;18.80;;
24407;SDS011;12542;50.924;4.516;2023-02-14T08:26:20;25.73;;;17.67;;
24407;SDS011;12542;50.924;4.516;2023-02-14T08:28:45;26.20;;;17.52;;
24407;SDS011;12542;50.924;4.516;2023-02-14T08:31:11;26.23;;;17.30;;
24407;SDS011;12542;50.924;4.516;2023-02-14T08:33:37;25.63;;;17.85;;
24407;SDS011;12542;50.924;4.516;2023-02-14T08:36:02;26.05;;;16.98;;
24407;SDS011;12542;50.924;4.516;2023-02-14T08:38:28;27.38;;;18.08;;
24407;SDS011;12542;50.924;4.516;2023-02-14T08:40:58;23.58;;;16.83;;
24407;SDS011;12542;50.924;4.516;2023-02-14T08:43:25;25.98;;;17.33;;
24407;SDS011;12542;50.924;4.516;2023-02-14T08:45:56;27.77;;;18.63;;
24407;SDS011;12542;50.924;4.516;2023-02-14T08:48:22;24.63;;;16.77;;
24407;SDS011;12542;50.924;4.516;2023-02-14T08:50:49;25.42;;;17.65;;
24407;SDS011;12542;50.924;4.516;2023-02-14T08:53:14;25.90;;;18.17;;
24407;SDS011;12542;50.924;4.516;2023-02-14T08:55:40;24.73;;;17.58;;
24407;SDS011;12542;50.924;4.516;2023-02-14T08:58:06;23.42;;;17.70;;
24407;SDS011;12542;50.924;4.516;2023-02-14T09:00:32;28.88;;;18.00;;
24407;SDS011;12542;50.924;4.516;2023-02-14T09:03:00;28.08;;;17.15;;
24407;SDS011;12542;50.924;4.516;2023-02-14T09:05:26;25.38;;;17.05;;
24407;SDS011;12542;50.924;4.516;2023-02-14T09:07:52;27.75;;;18.48;;
24407;SDS011;12542;50.924;4.516;2023-02-14T09:10:20;23.95;;;18.08;;
24407;SDS011;12542;50.924;4.516;2023-02-14T09:12:46;28.13;;;19.27;;
24407;SDS011;12542;50.924;4.516;2023-02-14T09:15:11;28.85;;;17.85;;
24407;SDS011;12542;50.924;4.516;2023-02-14T09:17:37;28.27;;;17.80;;
24407;SDS011;12542;50.924;4.516;2023-02-14T09:20:04;32.50;;;18.27;;
24407;SDS011;12542;50.924;4.516;2023-02-14T09:22:32;26.08;;;17.33;;
24407;SDS011;12542;50.924;4.516;2023-02-14T09:24:58;28.90;;;17.90;;
24407;SDS011;12542;50.924;4.516;2023-02-14T09:27:24;26.67;;;18.30;;
24407;SDS011;12542;50.924;4.516;2023-02-14T09:29:50;27.38;;;17.42;;
24407;SDS011;12542;50.924;4.516;2023-02-14T09:32:17;28.60;;;18.42;;
24407;SDS011;12542;50.924;4.516;2023-02-14T09:34:42;29.23;;;18.02;;
24407;SDS011;12542;50.924;4.516;2023-02-14T09:37:11;31.02;;;19.05;;
24407;SDS011;12542;50.924;4.516;2023-02-14T09:39:56;29.27;;;18.02;;
24407;SDS011;12542;50.924;4.516;2023-02-14T09:50:04;33.78;;;16.80;;
24407;SDS011;12542;50.924;4.516;2023-02-14T09:52:31;32.53;;;17.58;;
24407;SDS011;12542;50.924;4.516;2023-02-14T09:54:59;29.30;;;18.17;;
24407;SDS011;12542;50.924;4.516;2023-02-14T10:00:14;37.05;;;18.08;;
24407;SDS011;12542;50.924;4.516;2023-02-14T10:05:47;32.53;;;17.65;;
24407;SDS011;12542;50.924;4.516;2023-02-14T10:08:45;30.30;;;18.05;;
24407;SDS011;12542;50.924;4.516;2023-02-14T10:11:21;37.75;;;19.60;;
24407;SDS011;12542;50.924;4.516;2023-02-14T10:13:52;32.40;;;17.80;;
24407;SDS011;12542;50.924;4.516;2023-02-14T10:16:36;36.15;;;18.67;;
24407;SDS011;12542;50.924;4.516;2023-02-14T10:19:18;37.00;;;18.67;;
24407;SDS011;12542;50.924;4.516;2023-02-14T10:26:48;39.38;;;18.85;;
24407;SDS011;12542;50.924;4.516;2023-02-14T10:29:16;35.25;;;19.42;;
24407;SDS011;12542;50.924;4.516;2023-02-14T10:31:45;41.15;;;19.63;;
24407;SDS011;12542;50.924;4.516;2023-02-14T10:42:08;30.63;;;17.25;;
24407;SDS011;12542;50.924;4.516;2023-02-14T10:53:15;31.92;;;18.75;;
24407;SDS011;12542;50.924;4.516;2023-02-14T10:56:06;33.75;;;19.23;;
24407;SDS011;12542;50.924;4.516;2023-02-14T10:58:42;35.85;;;18.85;;
24407;SDS011;12542;50.924;4.516;2023-02-14T11:01:09;41.90;;;20.63;;
24407;SDS011;12542;50.924;4.516;2023-02-14T11:03:38;33.25;;;19.65;;
24407;SDS011;12542;50.924;4.516;2023-02-14T11:06:06;37.35;;;20.50;;
24407;SDS011;12542;50.924;4.516;2023-02-14T11:08:38;34.88;;;19.23;;
24407;SDS011;12542;50.924;4.516;2023-02-14T11:13:52;34.92;;;20.13;;
24407;SDS011;12542;50.924;4.516;2023-02-14T11:16:26;32.50;;;19.48;;
24407;SDS011;12542;50.924;4.516;2023-02-14T11:21:38;34.90;;;19.10;;
24407;SDS011;12542;50.924;4.516;2023-02-14T11:27:04;40.08;;;19.83;;
24407;SDS011;12542;50.924;4.516;2023-02-14T11:29:34;37.50;;;19.92;;
24407;SDS011;12542;50.924;4.516;2023-02-14T11:32:08;34.60;;;19.25;;
24407;SDS011;12542;50.924;4.516;2023-02-14T11:34:41;37.30;;;19.02;;
24407;SDS011;12542;50.924;4.516;2023-02-14T11:39:47;36.40;;;17.83;;
24407;SDS011;12542;50.924;4.516;2023-02-14T11:42:14;36.25;;;20.35;;
24407;SDS011;12542;50.924;4.516;2023-02-14T11:45:09;39.97;;;20.70;;
24407;SDS011;12542;50.924;4.516;2023-02-14T11:47:50;36.75;;;20.33;;
24407;SDS011;12542;50.924;4.516;2023-02-14T11:50:40;37.40;;;19.70;;
24407;SDS011;12542;50.924;4.516;2023-02-14T11:53:11;40.28;;;20.42;;
24407;SDS011;12542;50.924;4.516;2023-02-14T11:55:44;35.35;;;20.15;;
24407;SDS011;12542;50.924;4.516;2023-02-14T11:58:36;39.88;;;20.00;;
24407;SDS011;12542;50.924;4.516;2023-02-14T12:01:20;36.00;;;18.92;;
24407;SDS011;12542;50.924;4.516;2023-02-14T12:03:47;37.13;;;19.83;;
24407;SDS011;12542;50.924;4.516;2023-02-14T12:06:24;37.00;;;20.55;;
24407;SDS011;12542;50.924;4.516;2023-02-14T12:09:10;39.03;;;20.25;;
24407;SDS011;12542;50.924;4.516;2023-02-14T12:11:36;36.63;;;19.35;;
24407;SDS011;12542;50.924;4.516;2023-02-14T12:14:02;38.08;;;20.10;;
24407;SDS011;12542;50.924;4.516;2023-02-14T12:16:37;34.78;;;18.95;;
24407;SDS011;12542;50.924;4.516;2023-02-14T12:19:23;36.85;;;19.65;;
24407;SDS011;12542;50.924;4.516;2023-02-14T12:22:00;37.00;;;18.85;;
24407;SDS011;12542;50.924;4.516;2023-02-14T12:24:31;37.72;;;19.38;;
24407;SDS011;12542;50.924;4.516;2023-02-14T12:27:05;36.05;;;20.00;;
24407;SDS011;12542;50.924;4.516;2023-02-14T12:29:51;34.47;;;18.73;;
24407;SDS011;12542;50.924;4.516;2023-02-14T12:35:02;37.83;;;19.42;;
24407;SDS011;12542;50.924;4.516;2023-02-14T12:48:46;37.67;;;18.23;;
24407;SDS011;12542;50.924;4.516;2023-02-14T13:04:53;35.88;;;19.40;;
24407;SDS011;12542;50.924;4.516;2023-02-14T13:10:52;40.15;;;19.25;;
24407;SDS011;12542;50.924;4.516;2023-02-14T13:16:25;39.33;;;18.35;;
24407;SDS011;12542;50.924;4.516;2023-02-14T13:19:27;33.20;;;17.92;;
24407;SDS011;12542;50.924;4.516;2023-02-14T13:21:44;37.97;;;19.40;;
24407;SDS011;12542;50.924;4.516;2023-02-14T13:24:23;35.80;;;19.02;;
24407;SDS011;12542;50.924;4.516;2023-02-14T13:26:53;37.85;;;20.50;;
24407;SDS011;12542;50.924;4.516;2023-02-14T13:29:22;36.30;;;18.30;;
24407;SDS011;12542;50.924;4.516;2023-02-14T13:32:09;36.60;;;18.55;;
24407;SDS011;12542;50.924;4.516;2023-02-14T13:34:43;37.15;;;18.52;;
24407;SDS011;12542;50.924;4.516;2023-02-14T13:37:12;34.40;;;19.10;;
24407;SDS011;12542;50.924;4.516;2023-02-14T13:50:38;36.10;;;18.98;;
24407;SDS011;12542;50.924;4.516;2023-02-14T13:53:15;37.63;;;20.38;;
24407;SDS011;12542;50.924;4.516;2023-02-14T13:55:55;35.55;;;19.23;;
24407;SDS011;12542;50.924;4.516;2023-02-14T13:58:21;36.08;;;18.60;;
24407;SDS011;12542;50.924;4.516;2023-02-14T14:00:52;40.03;;;19.48;;
24407;SDS011;12542;50.924;4.516;2023-02-14T14:06:11;36.92;;;19.17;;
24407;SDS011;12542;50.924;4.516;2023-02-14T14:08:38;32.95;;;17.77;;
24407;SDS011;12542;50.924;4.516;2023-02-14T14:11:09;35.92;;;18.15;;
24407;SDS011;12542;50.924;4.516;2023-02-14T14:14:03;37.67;;;19.15;;
24407;SDS011;12542;50.924;4.516;2023-02-14T14:16:57;39.83;;;18.02;;
24407;SDS011;12542;50.924;4.516;2023-02-14T14:22:02;35.03;;;17.48;;
24407;SDS011;12542;50.924;4.516;2023-02-14T14:24:34;38.92;;;18.83;;
24407;SDS011;12542;50.924;4.516;2023-02-14T14:27:12;35.47;;;17.95;;
24407;SDS011;12542;50.924;4.516;2023-02-14T14:32:34;36.72;;;17.55;;
24407;SDS011;12542;50.924;4.516;2023-02-14T14:35:06;41.13;;;19.00;;
24407;SDS011;12542;50.924;4.516;2023-02-14T14:37:39;34.35;;;18.23;;
24407;SDS011;12542;50.924;4.516;2023-02-14T14:40:29;36.92;;;18.95;;
24407;SDS011;12542;50.924;4.516;2023-02-14T14:45:48;37.13;;;17.88;;
24407;SDS011;12542;50.924;4.516;2023-02-14T14:48:18;35.20;;;17.58;;
24407;SDS011;12542;50.924;4.516;2023-02-14T14:50:48;37.97;;;18.23;;
24407;SDS011;12542;50.924;4.516;2023-02-14T14:53:49;37.10;;;17.55;;
24407;SDS011;12542;50.924;4.516;2023-02-14T14:56:12;35.30;;;17.75;;
24407;SDS011;12542;50.924;4.516;2023-02-14T14:58:46;37.20;;;18.70;;
24407;SDS011;12542;50.924;4.516;2023-02-14T15:01:18;40.63;;;19.52;;
24407;SDS011;12542;50.924;4.516;2023-02-14T15:03:53;38.47;;;17.65;;
24407;SDS011;12542;50.924;4.516;2023-02-14T15:06:19;38.33;;;18.17;;
24407;SDS011;12542;50.924;4.516;2023-02-14T15:08:46;39.80;;;17.90;;
24407;SDS011;12542;50.924;4.516;2023-02-14T15:14:21;35.75;;;17.42;;
24407;SDS011;12542;50.924;4.516;2023-02-14T15:17:32;38.47;;;17.73;;
24407;SDS011;12542;50.924;4.516;2023-02-14T15:20:09;38.47;;;18.02;;
24407;SDS011;12542;50.924;4.516;2023-02-14T15:22:44;43.40;;;18.00;;
24407;SDS011;12542;50.924;4.516;2023-02-14T15:25:15;40.55;;;18.05;;
24407;SDS011;12542;50.924;4.516;2023-02-14T15:27:54;37.42;;;17.58;;
24407;SDS011;12542;50.924;4.516;2023-02-14T15:30:29;36.40;;;17.08;;
24407;SDS011;12542;50.924;4.516;2023-02-14T15:33:01;36.75;;;18.05;;
24407;SDS011;12542;50.924;4.516;2023-02-14T15:35:29;39.42;;;18.35;;
24407;SDS011;12542;50.924;4.516;2023-02-14T15:37:57;40.75;;;17.10;;
24407;SDS011;12542;50.924;4.516;2023-02-14T15:40:27;37.78;;;17.60;;
24407;SDS011;12542;50.924;4.516;2023-02-14T15:43:39;41.50;;;18.45;;
24407;SDS011;12542;50.924;4.516;2023-02-14T15:46:11;38.45;;;18.17;;
24407;SDS011;12542;50.924;4.516;2023-02-14T15:48:53;35.97;;;17.55;;
24407;SDS011;12542;50.924;4.516;2023-02-14T15:51:32;38.92;;;17.60;;
24407;SDS011;12542;50.924;4.516;2023-02-14T15:54:07;34.70;;;16.48;;
24407;SDS011;12542;50.924;4.516;2023-02-14T15:59:21;37.75;;;16.92;;
24407;SDS011;12542;50.924;4.516;2023-02-14T16:01:57;40.17;;;16.52;;
24407;SDS011;12542;50.924;4.516;2023-02-14T16:04:42;41.20;;;18.05;;
24407;SDS011;12542;50.924;4.516;2023-02-14T16:09:45;42.05;;;18.45;;
24407;SDS011;12542;50.924;4.516;2023-02-14T16:12:26;38.28;;;17.58;;
24407;SDS011;12542;50.924;4.516;2023-02-14T16:17:46;38.53;;;16.25;;
24407;SDS011;12542;50.924;4.516;2023-02-14T16:20:19;37.00;;;16.83;;
24407;SDS011;12542;50.924;4.516;2023-02-14T16:22:51;39.65;;;16.23;;
24407;SDS011;12542;50.924;4.516;2023-02-14T16:25:17;40.83;;;17.50;;
24407;SDS011;12542;50.924;4.516;2023-02-14T16:27:43;38.28;;;17.23;;
24407;SDS011;12542;50.924;4.516;2023-02-14T16:30:15;36.90;;;16.48;;
24407;SDS011;12542;50.924;4.516;2023-02-14T16:32:42;41.80;;;16.20;;
24407;SDS011;12542;50.924;4.516;2023-02-14T16:35:16;41.88;;;17.08;;
24407;SDS011;12542;50.924;4.516;2023-02-14T16:37:47;31.92;;;15.63;;
24407;SDS011;12542;50.924;4.516;2023-02-14T16:40:15;40.10;;;17.40;;
24407;SDS011;12542;50.924;4.516;2023-02-14T16:42:43;42.47;;;17.38;;
24407;SDS011;12542;50.924;4.516;2023-02-14T16:45:16;38.47;;;16.35;;
24407;SDS011;12542;50.924;4.516;2023-02-14T16:47:46;41.80;;;17.63;;
24407;SDS011;12542;50.924;4.516;2023-02-14T16:50:14;38.35;;;16.17;;
24407;SDS011;12542;50.924;4.516;2023-02-14T16:52:40;37.63;;;16.73;;
24407;SDS011;12542;50.924;4.516;2023-02-14T16:55:13;35.20;;;15.27;;
24407;SDS011;12542;50.924;4.516;2023-02-14T16:57:41;33.53;;;15.82;;
24407;SDS011;12542;50.924;4.516;2023-02-14T17:00:10;39.67;;;17.25;;
24407;SDS011;12542;50.924;4.516;2023-02-14T17:02:36;44.80;;;16.80;;
24407;SDS011;12542;50.924;4.516;2023-02-14T17:05:02;39.67;;;17.73;;
24407;SDS011;12542;50.924;4.516;2023-02-14T17:07:29;39.55;;;16.25;;
24407;SDS011;12542;50.924;4.516;2023-02-14T17:09:58;30.40;;;15.38;;
24407;SDS011;12542;50.924;4.516;2023-02-14T17:12:29;38.88;;;17.80;;
24407;SDS011;12542;50.924;4.516;2023-02-14T17:14:59;42.17;;;17.65;;
24407;SDS011;12542;50.924;4.516;2023-02-14T17:17:33;43.58;;;18.02;;
24407;SDS011;12542;50.924;4.516;2023-02-14T17:20:00;43.92;;;17.58;;
24407;SDS011;12542;50.924;4.516;2023-02-14T17:22:27;53.83;;;24.92;;
24407;SDS011;12542;50.924;4.516;2023-02-14T17:24:53;48.95;;;20.38;;
24407;SDS011;12542;50.924;4.516;2023-02-14T17:27:19;48.63;;;18.90;;
24407;SDS011;12542;50.924;4.516;2023-02-14T17:29:44;49.55;;;21.05;;
24407;SDS011;12542;50.924;4.516;2023-02-14T17:32:10;47.60;;;19.60;;
24407;SDS011;12542;50.924;4.516;2023-02-14T17:34:37;53.08;;;22.27;;
24407;SDS011;12542;50.924;4.516;2023-02-14T17:37:04;45.63;;;20.88;;